createdAt,value
2023-04-16T00:00:42.014Z,116943.30
2023-04-16T00:01:44.915Z,116943.30
2023-04-16T00:02:47.834Z,116943.30
2023-04-16T00:03:51.000Z,116943.30
2023-04-16T00:04:53.726Z,116943.30
2023-04-16T00:05:56.597Z,116943.30
2023-04-16T00:06:59.383Z,116943.30
2023-04-16T00:08:02.342Z,116943.30
2023-04-16T00:09:05.317Z,116943.30
2023-04-16T00:10:07.884Z,116943.30
2023-04-16T00:11:10.550Z,116943.30
2023-04-16T00:12:13.222Z,116943.30
2023-04-16T00:13:15.892Z,116943.30
2023-04-16T00:14:18.569Z,116943.30
2023-04-16T00:15:21.237Z,116943.30
2023-04-16T00:16:23.816Z,116943.30
2023-04-16T00:17:26.372Z,116943.30
2023-04-16T00:18:29.034Z,116943.30
2023-04-16T00:19:31.709Z,116943.30
2023-04-16T00:20:34.384Z,116943.30
2023-04-16T00:21:42.210Z,116943.30
2023-04-16T00:22:44.737Z,116943.30
2023-04-16T00:23:47.410Z,116943.30
2023-04-16T00:24:50.085Z,116943.30
2023-04-16T00:25:52.854Z,116943.30
2023-04-16T00:26:55.515Z,116943.30
2023-04-16T00:27:58.082Z,116943.30
2023-04-16T00:29:00.753Z,116943.30
2023-04-16T00:30:03.432Z,116943.30
2023-04-16T00:31:06.146Z,116943.30
2023-04-16T00:32:08.775Z,116943.30
2023-04-16T00:33:11.343Z,116943.30
2023-04-16T00:34:13.999Z,116943.30
2023-04-16T00:35:16.674Z,116943.30
2023-04-16T00:36:19.343Z,116943.30
2023-04-16T00:37:22.014Z,116943.30
2023-04-16T00:38:24.677Z,116943.30
2023-04-16T00:39:27.243Z,116943.30
2023-04-16T00:40:29.924Z,116943.30
2023-04-16T00:41:32.579Z,116943.30
2023-04-16T00:42:35.353Z,116943.30
2023-04-16T00:43:38.330Z,116943.30
2023-04-16T00:44:41.005Z,116943.30
2023-04-16T00:45:43.669Z,116943.30
2023-04-16T00:46:46.389Z,116943.30
2023-04-16T00:47:49.362Z,116943.30
2023-04-16T00:48:51.990Z,116943.30
2023-04-16T00:49:54.673Z,116943.30
2023-04-16T00:50:57.434Z,116943.30
2023-04-16T00:52:00.206Z,116943.30
2023-04-16T00:53:02.880Z,116943.30
2023-04-16T00:54:05.557Z,116943.30
2023-04-16T00:55:08.443Z,116943.30
2023-04-16T00:56:11.601Z,116943.30
2023-04-16T00:57:14.484Z,116943.30
2023-04-16T00:58:17.356Z,116943.30
2023-04-16T00:59:20.018Z,116943.30
2023-04-16T01:00:22.804Z,116943.30
2023-04-16T01:01:25.710Z,116943.30
2023-04-16T01:02:28.690Z,116943.30
2023-04-16T01:03:31.885Z,116943.30
2023-04-16T01:04:34.750Z,116943.30
2023-04-16T01:05:37.585Z,116943.30
2023-04-16T01:06:40.565Z,116943.30
2023-04-16T01:07:43.129Z,116943.30
2023-04-16T01:08:45.899Z,116943.30
2023-04-16T01:09:48.778Z,116943.30
2023-04-16T01:10:51.656Z,116943.30
2023-04-16T01:11:54.515Z,116943.30
2023-04-16T01:12:57.195Z,116943.30
2023-04-16T01:13:59.802Z,116943.30
2023-04-16T01:15:02.432Z,116943.30
2023-04-16T01:16:05.205Z,116943.30
2023-04-16T01:17:08.076Z,116943.30
2023-04-16T01:18:10.749Z,116943.30
2023-04-16T01:19:13.411Z,116943.30
2023-04-16T01:20:16.696Z,116943.30
2023-04-16T01:21:19.591Z,116943.30
2023-04-16T01:22:23.194Z,116943.30
2023-04-16T01:23:26.805Z,116943.30
2023-04-16T01:24:29.645Z,116943.30
2023-04-16T01:25:32.519Z,116943.30
2023-04-16T01:26:35.489Z,116943.30
2023-04-16T01:27:38.659Z,116943.30
2023-04-16T01:28:41.541Z,116943.30
2023-04-16T01:29:44.207Z,116943.30
2023-04-16T01:30:46.876Z,116943.30
2023-04-16T01:31:49.822Z,116943.30
2023-04-16T01:32:52.698Z,116943.30
2023-04-16T01:33:55.301Z,116943.30
2023-04-16T01:34:57.980Z,116943.30
2023-04-16T01:36:00.637Z,116943.30
2023-04-16T01:37:03.306Z,116943.30
2023-04-16T01:38:05.880Z,116943.30
2023-04-16T01:39:10.171Z,116943.30
2023-04-16T01:40:13.163Z,116943.30
2023-04-16T01:41:15.835Z,116943.30
2023-04-16T01:42:18.503Z,116943.30
2023-04-16T01:43:21.276Z,116943.30
2023-04-16T01:44:23.840Z,116943.30
2023-04-16T01:45:26.718Z,116943.30
2023-04-16T01:46:29.579Z,116943.30
2023-04-16T01:47:32.530Z,116943.30
2023-04-16T01:48:35.138Z,116943.30
2023-04-16T01:49:37.798Z,116943.30
2023-04-16T01:50:40.574Z,116943.30
2023-04-16T01:51:43.247Z,116943.30
2023-04-16T01:52:45.920Z,116943.30
2023-04-16T01:53:48.583Z,116943.30
2023-04-16T01:54:53.261Z,116943.30
2023-04-16T01:55:55.867Z,116943.30
2023-04-16T01:56:58.544Z,116943.30
2023-04-16T01:58:01.308Z,116943.30
2023-04-16T01:59:04.092Z,116943.30
2023-04-16T02:00:06.753Z,116943.30
2023-04-16T02:01:09.454Z,116943.30
2023-04-16T02:02:12.141Z,116943.30
2023-04-16T02:03:15.295Z,116943.30
2023-04-16T02:04:17.858Z,116943.30
2023-04-16T02:05:20.512Z,116943.30
2023-04-16T02:06:23.289Z,116943.30
2023-04-16T02:07:25.955Z,116943.30
2023-04-16T02:08:28.625Z,116943.30
2023-04-16T02:09:31.193Z,116943.30
2023-04-16T02:10:33.865Z,116943.30
2023-04-16T02:11:37.920Z,116943.30
2023-04-16T02:12:40.543Z,116943.30
2023-04-16T02:13:43.112Z,116943.30
2023-04-16T02:14:45.667Z,116943.30
2023-04-16T02:15:48.248Z,116943.30
2023-04-16T02:16:50.893Z,116943.30
2023-04-16T02:17:53.733Z,116943.30
2023-04-16T02:18:56.344Z,116943.30
2023-04-16T02:19:59.328Z,116943.30
2023-04-16T02:21:01.984Z,116943.30
2023-04-16T02:22:04.684Z,116943.30
2023-04-16T02:23:07.328Z,116943.30
2023-04-16T02:24:10.204Z,116943.30
2023-04-16T02:25:12.871Z,116943.30
2023-04-16T02:26:15.543Z,116943.30
2023-04-16T02:27:18.221Z,116943.30
2023-04-16T02:28:20.898Z,116943.30
2023-04-16T02:29:23.551Z,116943.30
2023-04-16T02:30:26.426Z,116943.30
2023-04-16T02:31:29.031Z,116943.30
2023-04-16T02:32:31.676Z,116943.30
2023-04-16T02:33:34.337Z,116943.30
2023-04-16T02:34:37.103Z,116943.30
2023-04-16T02:35:39.775Z,116943.30
2023-04-16T02:36:42.545Z,116943.30
2023-04-16T02:37:45.217Z,116943.30
2023-04-16T02:38:47.785Z,116943.30
2023-04-16T02:39:53.319Z,116943.30
2023-04-16T02:40:56.300Z,116943.30
2023-04-16T02:41:58.964Z,116943.30
2023-04-16T02:43:01.642Z,116943.30
2023-04-16T02:44:04.319Z,116943.30
2023-04-16T02:45:06.974Z,116943.30
2023-04-16T02:46:09.711Z,116943.30
2023-04-16T02:47:12.331Z,116943.30
2023-04-16T02:48:15.191Z,116943.30
2023-04-16T02:49:17.771Z,116943.30
2023-04-16T02:50:20.430Z,116943.30
2023-04-16T02:51:23.418Z,116943.30
2023-04-16T02:52:26.178Z,116943.30
2023-04-16T02:53:28.845Z,116943.30
2023-04-16T02:54:32.806Z,116943.30
2023-04-16T02:55:35.627Z,116943.30
2023-04-16T02:56:38.187Z,116943.30
2023-04-16T02:57:41.061Z,116943.30
2023-04-16T02:58:43.745Z,116943.30
2023-04-16T02:59:46.623Z,116943.30
2023-04-16T03:00:49.179Z,116943.30
2023-04-16T03:01:52.138Z,116943.30
2023-04-16T03:02:55.070Z,116943.30
2023-04-16T03:03:58.033Z,116943.30
2023-04-16T03:05:00.694Z,116943.30
2023-04-16T03:06:03.344Z,116943.30
2023-04-16T03:07:05.992Z,116943.30
2023-04-16T03:08:10.419Z,116943.30
2023-04-16T03:09:12.991Z,116943.30
2023-04-16T03:10:15.676Z,116943.30
2023-04-16T03:11:18.234Z,116943.30
2023-04-16T03:12:20.896Z,116943.30
2023-04-16T03:13:23.785Z,116943.30
2023-04-16T03:14:26.438Z,116943.30
2023-04-16T03:15:29.179Z,116943.30
2023-04-16T03:16:31.892Z,116943.30
2023-04-16T03:17:34.472Z,116943.30
2023-04-16T03:18:37.123Z,116943.30
2023-04-16T03:19:39.686Z,116943.30
2023-04-16T03:20:42.369Z,116943.30
2023-04-16T03:21:44.847Z,116943.30
2023-04-16T03:22:48.108Z,116943.30
2023-04-16T03:23:50.677Z,116943.30
2023-04-16T03:24:53.456Z,116943.30
2023-04-16T03:25:55.934Z,116943.30
2023-04-16T03:26:58.516Z,116943.30
2023-04-16T03:28:01.794Z,116943.30
2023-04-16T03:29:04.340Z,116943.30
2023-04-16T03:30:07.006Z,116943.30
2023-04-16T03:31:09.677Z,116943.30
2023-04-16T03:32:12.558Z,116943.30
2023-04-16T03:33:15.937Z,116943.30
2023-04-16T03:34:18.811Z,116943.30
2023-04-16T03:35:21.506Z,116943.30
2023-04-16T03:36:24.154Z,116943.30
2023-04-16T03:37:26.716Z,116943.30
2023-04-16T03:38:29.402Z,116943.30
2023-04-16T03:39:32.205Z,116943.30
2023-04-16T03:40:34.936Z,116943.30
2023-04-16T03:41:37.499Z,116943.30
2023-04-16T03:42:45.600Z,116943.30
2023-04-16T03:43:48.376Z,116943.30
2023-04-16T03:44:50.939Z,116943.30
2023-04-16T03:45:53.615Z,116943.30
2023-04-16T03:46:56.311Z,116943.30
2023-04-16T03:47:59.127Z,116943.30
2023-04-16T03:49:01.936Z,116943.30
2023-04-16T03:50:04.703Z,116943.30
2023-04-16T03:51:08.395Z,116943.30
2023-04-16T03:52:11.171Z,116943.30
2023-04-16T03:53:13.831Z,116943.30
2023-04-16T03:54:16.714Z,116943.30
2023-04-16T03:55:19.687Z,116943.30
2023-04-16T03:56:22.975Z,116943.30
2023-04-16T03:57:25.737Z,116943.30
2023-04-16T03:58:28.413Z,116943.30
2023-04-16T03:59:31.193Z,116943.30
2023-04-16T04:00:33.968Z,116943.30
2023-04-16T04:01:36.861Z,116943.30
2023-04-16T04:02:39.858Z,116943.30
2023-04-16T04:03:42.640Z,116943.30
2023-04-16T04:04:45.519Z,116943.30
2023-04-16T04:05:48.125Z,116943.30
2023-04-16T04:06:50.800Z,116943.30
2023-04-16T04:07:53.461Z,116943.30
2023-04-16T04:08:56.032Z,116943.30
2023-04-16T04:09:58.712Z,116943.30
2023-04-16T04:11:01.398Z,116943.30
2023-04-16T04:12:04.038Z,116943.30
2023-04-16T04:13:06.727Z,116943.30
2023-04-16T04:14:09.380Z,116943.30
2023-04-16T04:15:11.948Z,116943.30
2023-04-16T04:16:14.668Z,116943.30
2023-04-16T04:17:17.190Z,116943.30
2023-04-16T04:18:22.492Z,116943.30
2023-04-16T04:19:24.983Z,116943.30
2023-04-16T04:20:27.649Z,116943.30
2023-04-16T04:21:30.218Z,116943.30
2023-04-16T04:22:32.805Z,116943.30
2023-04-16T04:23:35.362Z,116943.30
2023-04-16T04:24:37.929Z,116943.30
2023-04-16T04:25:40.493Z,116943.30
2023-04-16T04:26:43.168Z,116943.30
2023-04-16T04:27:45.934Z,116943.30
2023-04-16T04:28:48.608Z,116943.30
2023-04-16T04:29:51.270Z,116943.30
2023-04-16T04:30:54.049Z,116943.30
2023-04-16T04:31:56.978Z,116943.30
2023-04-16T04:32:59.626Z,116943.30
2023-04-16T04:34:02.362Z,116943.30
2023-04-16T04:35:05.026Z,116943.30
2023-04-16T04:36:08.212Z,116943.30
2023-04-16T04:37:11.195Z,116943.30
2023-04-16T04:38:16.151Z,116943.30
2023-04-16T04:39:18.072Z,116943.30
2023-04-16T04:40:21.085Z,116943.30
2023-04-16T04:41:24.236Z,116943.30
2023-04-16T04:42:26.991Z,116160.45
2023-04-16T04:43:29.566Z,114857.75
2023-04-16T04:44:32.741Z,113685.67
2023-04-16T04:45:35.642Z,110561.77
2023-04-16T04:46:38.495Z,113034.66
2023-04-16T04:47:41.089Z,111082.26
2023-04-16T04:48:43.741Z,110041.36
2023-04-16T04:49:46.504Z,106010.38
2023-04-16T04:50:49.394Z,106660.27
2023-04-16T04:51:52.355Z,103801.54
2023-04-16T04:52:55.639Z,103671.64
2023-04-16T04:53:58.411Z,104970.77
2023-04-16T04:55:01.077Z,102243.08
2023-04-16T04:56:12.137Z,101464.08
2023-04-16T04:57:08.258Z,99517.22
2023-04-16T04:58:11.059Z,94086.17
2023-04-16T04:59:13.720Z,93542.56
2023-04-16T05:00:16.683Z,87217.92
2023-04-16T05:01:19.595Z,77565.55
2023-04-16T05:02:22.802Z,83105.61
2023-04-16T05:03:25.716Z,80153.53
2023-04-16T05:04:28.487Z,80183.80
2023-04-16T05:05:31.370Z,74562.13
2023-04-16T05:06:34.144Z,72976.67
2023-04-16T05:07:37.114Z,74830.13
2023-04-16T05:08:39.902Z,67787.52
2023-04-16T05:09:42.659Z,69017.77
2023-04-16T05:10:46.555Z,65412.58
2023-04-16T05:11:49.119Z,64124.15
2023-04-16T05:12:52.113Z,64561.29
2023-04-16T05:13:56.573Z,60969.16
2023-04-16T05:14:59.182Z,59989.33
2023-04-16T05:16:01.858Z,57754.48
2023-04-16T05:17:04.435Z,57710.34
2023-04-16T05:18:07.295Z,57254.89
2023-04-16T05:19:18.882Z,50976.35
2023-04-16T05:20:21.543Z,58702.66
2023-04-16T05:21:24.119Z,58120.68
2023-04-16T05:22:26.795Z,58821.07
2023-04-16T05:23:29.457Z,58996.69
2023-04-16T05:24:32.120Z,59971.26
2023-04-16T05:25:35.019Z,59345.94
2023-04-16T05:26:37.661Z,59884.93
2023-04-16T05:27:40.657Z,61798.60
2023-04-16T05:28:43.314Z,60905.91
2023-04-16T05:29:46.287Z,60618.77
2023-04-16T05:30:49.267Z,61221.19
2023-04-16T05:31:52.145Z,61072.59
2023-04-16T05:32:54.958Z,61650.98
2023-04-16T05:33:57.589Z,60967.16
2023-04-16T05:35:00.556Z,60541.46
2023-04-16T05:36:03.431Z,59391.11
2023-04-16T05:37:06.116Z,60901.89
2023-04-16T05:38:08.792Z,60618.77
2023-04-16T05:39:12.140Z,60948.08
2023-04-16T05:40:15.026Z,60010.41
2023-04-16T05:41:18.622Z,59959.21
2023-04-16T05:42:21.496Z,61416.00
2023-04-16T05:43:24.060Z,60616.76
2023-04-16T05:44:26.835Z,60486.25
2023-04-16T05:45:29.498Z,62621.18
2023-04-16T05:46:32.526Z,62040.64
2023-04-16T05:47:35.326Z,62206.36
2023-04-16T05:48:38.141Z,60290.48
2023-04-16T05:49:41.005Z,64092.00
2023-04-16T05:50:43.897Z,63820.70
2023-04-16T05:51:46.449Z,63317.34
2023-04-16T05:52:49.077Z,64521.09
2023-04-16T05:53:51.700Z,62265.61
2023-04-16T05:54:54.367Z,61925.14
2023-04-16T05:55:57.332Z,61448.13
2023-04-16T05:56:59.895Z,64375.37
2023-04-16T05:58:02.562Z,66447.05
2023-04-16T05:59:05.137Z,66765.78
2023-04-16T06:00:07.701Z,67099.63
2023-04-16T06:01:10.271Z,65758.38
2023-04-16T06:02:13.022Z,65064.80
2023-04-16T06:03:15.788Z,67328.91
2023-04-16T06:04:19.033Z,68641.52
2023-04-16T06:05:22.330Z,70920.73
2023-04-16T06:06:25.182Z,72593.99
2023-04-16T06:07:28.252Z,73036.09
2023-04-16T06:08:30.817Z,73101.55
2023-04-16T06:09:33.689Z,70747.61
2023-04-16T06:10:36.250Z,68197.89
2023-04-16T06:11:39.217Z,66955.83
2023-04-16T06:12:42.094Z,66783.88
2023-04-16T06:13:44.774Z,64292.97
2023-04-16T06:14:47.431Z,61910.08
2023-04-16T06:15:50.347Z,61816.68
2023-04-16T06:16:53.387Z,61018.36
2023-04-16T06:17:55.998Z,61062.54
2023-04-16T06:18:58.631Z,62095.88
2023-04-16T06:20:01.192Z,62609.12
2023-04-16T06:21:03.890Z,64849.72
2023-04-16T06:22:06.738Z,67626.59
2023-04-16T06:23:09.310Z,72190.21
2023-04-16T06:24:11.976Z,77938.63
2023-04-16T06:25:15.717Z,82793.65
2023-04-16T06:26:18.750Z,78899.67
2023-04-16T06:27:21.625Z,84904.17
2023-04-16T06:28:24.302Z,65209.54
2023-04-16T06:29:33.680Z,63028.01
2023-04-16T06:30:31.066Z,65139.18
2023-04-16T06:31:33.899Z,70915.70
2023-04-16T06:32:36.763Z,69600.34
2023-04-16T06:33:39.590Z,60575.59
2023-04-16T06:34:42.270Z,61091.66
2023-04-16T06:35:44.822Z,61513.40
2023-04-16T06:36:47.494Z,60978.20
2023-04-16T06:37:50.162Z,60780.41
2023-04-16T06:38:52.736Z,60940.05
2023-04-16T06:39:55.526Z,60867.76
2023-04-16T06:40:58.072Z,61223.20
2023-04-16T06:42:00.739Z,62120.98
2023-04-16T06:43:03.450Z,61398.93
2023-04-16T06:44:06.106Z,63381.64
2023-04-16T06:45:08.975Z,65213.56
2023-04-16T06:46:11.517Z,70155.81
2023-04-16T06:47:14.193Z,70573.48
2023-04-16T06:48:16.966Z,75847.88
2023-04-16T06:49:19.943Z,88883.84
2023-04-16T06:50:22.619Z,91834.24
2023-04-16T06:51:25.281Z,94330.16
2023-04-16T06:52:27.847Z,101204.44
2023-04-16T06:53:30.529Z,102892.36
2023-04-16T06:54:33.185Z,105490.55
2023-04-16T06:55:36.079Z,106530.28
2023-04-16T06:56:38.732Z,105490.55
2023-04-16T06:57:44.925Z,106920.25
2023-04-16T06:58:47.658Z,108220.42
2023-04-16T06:59:50.328Z,108350.46
2023-04-16T07:00:52.922Z,106400.30
2023-04-16T07:01:55.521Z,106530.28
2023-04-16T07:02:58.806Z,103801.54
2023-04-16T07:04:01.619Z,106140.34
2023-04-16T07:05:04.819Z,101204.44
2023-04-16T07:06:07.780Z,96793.19
2023-04-16T07:07:10.556Z,93706.55
2023-04-16T07:08:15.888Z,92771.30
2023-04-16T07:09:18.660Z,86657.05
2023-04-16T07:10:21.647Z,81804.41
2023-04-16T07:11:24.514Z,81372.45
2023-04-16T07:12:27.186Z,80478.41
2023-04-16T07:13:29.874Z,82775.48
2023-04-16T07:14:37.726Z,83714.47
2023-04-16T07:15:40.514Z,88861.59
2023-04-16T07:16:43.138Z,87707.11
2023-04-16T07:17:45.769Z,89114.38
2023-04-16T07:18:48.321Z,92947.41
2023-04-16T07:19:51.301Z,92247.09
2023-04-16T07:20:54.169Z,92946.39
2023-04-16T07:21:58.228Z,92067.98
2023-04-16T07:23:01.046Z,91880.78
2023-04-16T07:24:03.839Z,91874.72
2023-04-16T07:25:07.826Z,91760.38
2023-04-16T07:26:10.709Z,90197.45
2023-04-16T07:27:13.402Z,89276.16
2023-04-16T07:28:16.029Z,86326.62
2023-04-16T07:29:18.908Z,87693.97
2023-04-16T07:30:21.986Z,90301.62
2023-04-16T07:31:24.716Z,87724.30
2023-04-16T07:32:27.376Z,89308.52
2023-04-16T07:33:29.905Z,90586.86
2023-04-16T07:34:32.677Z,86373.09
2023-04-16T07:35:35.861Z,92542.58
2023-04-16T07:36:38.736Z,93948.49
2023-04-16T07:37:41.392Z,91998.16
2023-04-16T07:38:44.268Z,92516.27
2023-04-16T07:39:47.139Z,92977.77
2023-04-16T07:40:50.120Z,91312.18
2023-04-16T07:41:52.715Z,87766.75
2023-04-16T07:42:57.411Z,89955.73
2023-04-16T07:43:59.974Z,91146.27
2023-04-16T07:45:02.542Z,92463.64
2023-04-16T07:46:05.751Z,92044.70
2023-04-16T07:47:08.606Z,85491.07
2023-04-16T07:48:11.289Z,84128.50
2023-04-16T07:49:14.158Z,85128.41
2023-04-16T07:50:17.014Z,85298.13
2023-04-16T07:51:19.994Z,89073.93
2023-04-16T07:52:22.676Z,91473.04
2023-04-16T07:53:25.529Z,89090.11
2023-04-16T07:54:29.203Z,88615.91
2023-04-16T07:55:32.207Z,86750.02
2023-04-16T07:56:34.878Z,88387.43
2023-04-16T07:57:37.656Z,84630.45
2023-04-16T07:58:40.427Z,81928.56
2023-04-16T08:00:59.385Z,81017.23
2023-04-16T08:02:02.418Z,81306.86
2023-04-16T08:03:05.195Z,84138.60
2023-04-16T08:04:08.166Z,86589.34
2023-04-16T08:05:11.205Z,89745.38
2023-04-16T08:06:13.962Z,90619.23
2023-04-16T08:07:16.629Z,91060.27
2023-04-16T08:08:19.298Z,91375.91
2023-04-16T08:09:22.075Z,93450.45
2023-04-16T08:10:26.058Z,93500.05
2023-04-16T08:11:28.549Z,94200.58
2023-04-16T08:12:31.428Z,94978.19
2023-04-16T08:13:34.492Z,92825.95
2023-04-16T08:14:37.056Z,95237.42
2023-04-16T08:15:39.660Z,96144.87
2023-04-16T08:16:42.195Z,93255.09
2023-04-16T08:17:46.033Z,90993.51
2023-04-16T08:18:48.673Z,89717.06
2023-04-16T08:19:51.255Z,86034.61
2023-04-16T08:20:54.000Z,85348.62
2023-04-16T08:21:56.586Z,81049.52
2023-04-16T08:22:59.357Z,78842.19
2023-04-16T08:24:01.913Z,78992.47
2023-04-16T08:25:04.577Z,78572.91
2023-04-16T08:26:07.452Z,83543.81
2023-04-16T08:27:18.637Z,88282.30
2023-04-16T08:28:14.955Z,90569.67
2023-04-16T08:29:17.715Z,90076.08
2023-04-16T08:30:20.380Z,88718.03
2023-04-16T08:31:23.027Z,83999.23
2023-04-16T08:32:25.999Z,79576.48
2023-04-16T08:33:28.599Z,79723.77
2023-04-16T08:34:31.319Z,74674.97
2023-04-16T08:35:33.961Z,76864.89
2023-04-16T08:36:36.714Z,79296.06
2023-04-16T08:37:39.346Z,81504.66
2023-04-16T08:38:42.255Z,84531.47
2023-04-16T08:39:45.139Z,82741.16
2023-04-16T08:40:49.140Z,83047.05
2023-04-16T08:41:52.214Z,82585.69
2023-04-16T08:42:55.085Z,82915.81
2023-04-16T08:43:57.755Z,85193.06
2023-04-16T08:45:00.322Z,85387.02
2023-04-16T08:46:02.992Z,88034.63
2023-04-16T08:47:06.157Z,82899.66
2023-04-16T08:48:08.845Z,85724.44
2023-04-16T08:49:11.790Z,84681.95
2023-04-16T08:50:14.591Z,81507.69
2023-04-16T08:51:17.275Z,83221.72
2023-04-16T08:52:19.930Z,85724.44
2023-04-16T08:53:22.815Z,88028.55
2023-04-16T08:54:26.014Z,90665.77
2023-04-16T08:55:28.657Z,94073.02
2023-04-16T08:56:31.333Z,97311.91
2023-04-16T08:57:34.248Z,98738.73
2023-04-16T08:58:36.974Z,100815.02
2023-04-16T08:59:39.644Z,102502.78
2023-04-16T09:00:44.031Z,103022.23
2023-04-16T09:01:46.751Z,105360.59
2023-04-16T09:02:50.008Z,106140.34
2023-04-16T09:03:53.161Z,107440.27
2023-04-16T09:04:56.207Z,108610.55
2023-04-16T09:05:58.857Z,109781.17
2023-04-16T09:07:01.819Z,110171.45
2023-04-16T09:08:05.827Z,110301.56
2023-04-16T09:09:08.805Z,112123.42
2023-04-16T09:10:11.572Z,113034.66
2023-04-16T09:11:14.158Z,110171.45
2023-04-16T09:12:16.694Z,109911.27
2023-04-16T09:13:19.369Z,111472.66
2023-04-16T09:17:48.371Z,114076.33
2023-04-16T09:18:51.156Z,114988.00
2023-04-16T09:19:53.830Z,115118.26
2023-04-16T09:21:05.942Z,114597.26
2023-04-16T09:22:08.492Z,114857.75
2023-04-16T09:23:11.366Z,115639.32
2023-04-16T09:24:14.134Z,115248.52
2023-04-16T09:25:17.013Z,115769.59
2023-04-16T09:26:19.572Z,116030.16
2023-04-16T09:28:38.155Z,116942.28
2023-04-16T09:29:40.697Z,116942.28
2023-04-16T09:30:43.660Z,116421.05
2023-04-16T09:31:46.576Z,115899.87
2023-04-16T09:32:49.261Z,116030.16
2023-04-16T09:35:07.964Z,114076.33
2023-04-16T09:36:10.846Z,113815.89
2023-04-16T09:37:13.508Z,112774.28
2023-04-16T09:38:16.192Z,111602.80
2023-04-16T09:39:18.857Z,112644.11
2023-04-16T09:40:21.824Z,113295.05
2023-04-16T09:41:28.388Z,113555.46
2023-04-16T09:42:31.269Z,112644.11
2023-04-16T09:43:39.836Z,113685.67
2023-04-16T09:44:42.328Z,114336.78
2023-04-16T09:45:44.934Z,115639.32
2023-04-16T09:48:03.644Z,116943.30
2023-04-16T09:49:06.326Z,116943.30
2023-04-16T09:50:11.270Z,116943.30
2023-04-16T09:51:13.520Z,116160.45
2023-04-16T09:52:16.191Z,116160.45
2023-04-16T09:53:18.857Z,115769.59
2023-04-16T09:55:37.628Z,113946.10
2023-04-16T09:56:40.184Z,114727.50
2023-04-16T09:58:59.128Z,114857.75
2023-04-16T10:00:01.841Z,114597.26
2023-04-16T10:01:04.521Z,114336.78
2023-04-16T10:02:14.844Z,114076.33
2023-04-16T10:03:11.367Z,114597.26
2023-04-16T10:05:24.273Z,111472.66
2023-04-16T10:06:26.929Z,111212.39
2023-04-16T10:08:45.967Z,111732.95
2023-04-16T10:09:49.898Z,113164.86
2023-04-16T10:10:52.676Z,113685.67
2023-04-16T10:11:55.341Z,113555.46
2023-04-16T10:12:58.216Z,114336.78
2023-04-16T10:14:00.899Z,115118.26
2023-04-16T10:15:03.559Z,114727.50
2023-04-16T10:17:16.577Z,114076.33
2023-04-16T10:18:19.241Z,114597.26
2023-04-16T10:19:21.726Z,114727.50
2023-04-16T10:20:24.460Z,114988.00
2023-04-16T10:21:27.257Z,115378.78
2023-04-16T10:23:43.449Z,115118.26
2023-04-16T10:24:46.221Z,115509.05
2023-04-16T10:25:48.897Z,114857.75
2023-04-16T10:28:08.064Z,115248.52
2023-04-16T10:29:12.722Z,115248.52
2023-04-16T10:30:15.702Z,114857.75
2023-04-16T10:31:18.341Z,115378.78
2023-04-16T10:32:22.233Z,115509.05
2023-04-16T10:33:25.097Z,115378.78
2023-04-16T10:34:27.655Z,115769.59
2023-04-16T10:35:30.537Z,116030.16
2023-04-16T10:37:48.877Z,116551.34
2023-04-16T10:38:51.545Z,116551.34
2023-04-16T10:39:54.214Z,116551.34
2023-04-16T10:42:13.132Z,116943.30
2023-04-16T10:43:15.743Z,116943.30
2023-04-16T10:44:18.431Z,116943.30
2023-04-16T10:45:21.085Z,116943.30
2023-04-16T10:46:23.805Z,116943.30
2023-04-16T10:47:26.453Z,116943.30
2023-04-16T10:49:36.886Z,116943.30
2023-04-16T10:50:39.784Z,116943.30
2023-04-16T10:51:42.537Z,116943.30
2023-04-16T10:52:45.193Z,116943.30
2023-04-16T10:55:04.055Z,116943.30
2023-04-16T10:56:06.727Z,116943.30
2023-04-16T10:57:09.192Z,116943.30
2023-04-16T10:58:12.065Z,116943.30
2023-04-16T11:00:35.093Z,116943.30
2023-04-16T11:01:38.246Z,116943.30
2023-04-16T11:02:40.978Z,116943.30
2023-04-16T11:03:49.686Z,116943.30
2023-04-16T11:04:52.591Z,116943.30
2023-04-16T11:05:55.545Z,116943.30
2023-04-16T11:06:58.419Z,116943.30
2023-04-16T11:08:02.234Z,116943.30
2023-04-16T11:10:21.070Z,116943.30
2023-04-16T11:11:23.774Z,116943.30
2023-04-16T11:12:26.406Z,116943.30
2023-04-16T11:13:29.068Z,116943.30
2023-04-16T11:14:31.942Z,116943.30
2023-04-16T11:15:34.707Z,116943.30
2023-04-16T11:16:37.590Z,116943.30
2023-04-16T11:17:40.486Z,116943.30
2023-04-16T11:20:00.481Z,116943.30
2023-04-16T11:21:06.058Z,116943.30
2023-04-16T11:22:08.764Z,116943.30
2023-04-16T11:23:11.632Z,116943.30
2023-04-16T11:24:14.508Z,116943.30
2023-04-16T11:25:17.477Z,116943.30
2023-04-16T11:26:20.057Z,116943.30
2023-04-16T11:28:38.596Z,116943.30
2023-04-16T11:29:41.284Z,116943.30
2023-04-16T11:30:43.934Z,116943.30
2023-04-16T11:31:46.521Z,116943.30
2023-04-16T11:32:49.243Z,116943.30
2023-04-16T11:34:59.641Z,116943.30
2023-04-16T11:38:29.767Z,116943.30
2023-04-16T11:39:32.445Z,116943.30
2023-04-16T11:40:35.216Z,116943.30
2023-04-16T11:41:38.191Z,116943.30
2023-04-16T11:42:40.835Z,116943.30
2023-04-16T11:43:43.533Z,116943.30
2023-04-16T11:44:46.333Z,116943.30
2023-04-16T11:47:04.981Z,116943.30
2023-04-16T11:48:09.838Z,116943.30
2023-04-16T11:49:11.925Z,116943.30
2023-04-16T11:50:15.025Z,116943.30
2023-04-16T11:51:17.776Z,116943.30
2023-04-16T11:54:36.128Z,116943.30
2023-04-16T11:56:51.608Z,116943.30
2023-04-16T11:57:54.282Z,116943.30
2023-04-16T11:58:57.051Z,116943.30
2023-04-16T12:00:02.430Z,116943.30
2023-04-16T12:01:03.830Z,116943.30
2023-04-16T12:02:06.550Z,116943.30
2023-04-16T12:04:25.230Z,116943.30
2023-04-16T12:05:27.954Z,116943.30
2023-04-16T12:06:30.591Z,116943.30
2023-04-16T12:07:33.266Z,116943.30
2023-04-16T12:08:35.928Z,116943.30
2023-04-16T12:09:40.545Z,116943.30
2023-04-16T12:10:42.695Z,116943.30
2023-04-16T12:12:58.427Z,116943.30
2023-04-16T12:14:00.952Z,116943.30
2023-04-16T12:15:03.955Z,116943.30
2023-04-16T12:17:22.855Z,116943.30
2023-04-16T12:18:25.878Z,116943.30
2023-04-16T12:19:28.435Z,116943.30
2023-04-16T12:20:31.006Z,116943.30
2023-04-16T12:21:33.672Z,116943.30
2023-04-16T12:22:38.377Z,116943.30
2023-04-16T12:23:40.850Z,116943.30
2023-04-16T12:24:43.626Z,116943.30
2023-04-16T12:25:46.308Z,116943.30
2023-04-16T12:26:49.166Z,116943.30
2023-04-16T12:29:08.072Z,116943.30
2023-04-16T12:30:10.918Z,116943.30
2023-04-16T12:31:13.627Z,116943.30
2023-04-16T12:32:16.448Z,116943.30
2023-04-16T12:33:19.114Z,116943.30
2023-04-16T12:34:21.696Z,116943.30
2023-04-16T12:35:25.791Z,116943.30
2023-04-16T12:36:40.550Z,116943.30
2023-04-16T12:37:58.693Z,116943.30
2023-04-16T12:39:01.633Z,116943.30
2023-04-16T12:40:04.219Z,116943.30
2023-04-16T12:41:07.200Z,116943.30
2023-04-16T12:42:09.845Z,116943.30
2023-04-16T12:43:12.642Z,116943.30
2023-04-16T12:44:15.316Z,116943.30
2023-04-16T12:45:17.889Z,116943.30